UAE332 OMDB-RPLL
Flight info
| Callsign | UAE332 |
|---|---|
| Flight time | N/A |
| Altitude | 35000 |
| Route | ANVIX L223 TARDI N629 IVAKU G216 ALPOR M504 TELEM A791 CEA B465 DAKID/N0488F370 B465 CTG A599 LINSO/K0898S1130 A599 POU B330 TAMOT/N0480F370 B330 BIGEX DCT POVAM DCT NOPER V642 NOMAN A461 AVMUP W16 TADEL TADEL7R |
| Aircraft | B77W/H-SDE2E3FGHIJ3J5M1P2RWXYZ/LB1D1 |
Departure
| Time | 2026-05-05 21:59 |
|---|---|
| Airport | Dubai International Airport (OMDB) |
Arrival
| Time | N/A |
|---|---|
| Airport | Ninoy Aquino International Airport (RPLL) |
| Time | Latitude | Longitude | Altitude | Speed | Heading |
|---|---|---|---|---|---|
| 2026-05-05 21:30 | 25.24738 | 55.36565 | 76 ft | 0 kts | 211° |
| 2026-05-05 21:44 | 25.24742 | 55.36567 | 76 ft | 2 kts | 211° |
| 2026-05-05 21:44 | 25.24755 | 55.36576 | 76 ft | 2 kts | 211° |
| 2026-05-05 21:45 | 25.24768 | 55.36584 | 76 ft | 2 kts | 200° |
| 2026-05-05 21:45 | 25.24782 | 55.36588 | 76 ft | 2 kts | 186° |
| 2026-05-05 21:45 | 25.24797 | 55.36588 | 76 ft | 2 kts | 174° |
| 2026-05-05 21:45 | 25.24812 | 55.36585 | 76 ft | 2 kts | 162° |
| 2026-05-05 21:46 | 25.24826 | 55.36579 | 76 ft | 2 kts | 149° |
| 2026-05-05 21:46 | 25.24838 | 55.36570 | 76 ft | 2 kts | 137° |
| 2026-05-05 21:46 | 25.24848 | 55.36557 | 76 ft | 2 kts | 125° |
| 2026-05-05 21:46 | 25.24856 | 55.36543 | 76 ft | 2 kts | 119° |
| 2026-05-05 21:47 | 25.24863 | 55.36529 | 76 ft | 2 kts | 120° |
| 2026-05-05 21:47 | 25.24871 | 55.36515 | 76 ft | 2 kts | 121° |
| 2026-05-05 21:47 | 25.24878 | 55.36503 | 76 ft | 0 kts | 121° |
| 2026-05-05 21:47 | 25.24878 | 55.36502 | 76 ft | 0 kts | 121° |
| 2026-05-05 21:49 | 25.24878 | 55.36503 | 76 ft | 1 kts | 121° |
| 2026-05-05 21:50 | 25.24875 | 55.36508 | 76 ft | 0 kts | 122° |
| 2026-05-05 21:52 | 25.24851 | 55.36551 | 76 ft | 7 kts | 120° |
| 2026-05-05 21:52 | 25.24820 | 55.36608 | 76 ft | 10 kts | 118° |
| 2026-05-05 21:52 | 25.24791 | 55.36694 | 76 ft | 13 kts | 104° |
| 2026-05-05 21:53 | 25.24767 | 55.36803 | 76 ft | 15 kts | 109° |
| 2026-05-05 21:53 | 25.24711 | 55.36919 | 76 ft | 18 kts | 121° |
| 2026-05-05 21:53 | 25.24642 | 55.37043 | 76 ft | 19 kts | 121° |
| 2026-05-05 21:53 | 25.24568 | 55.37179 | 76 ft | 21 kts | 121° |
| 2026-05-05 21:54 | 25.24497 | 55.37307 | 76 ft | 18 kts | 122° |
| 2026-05-05 21:54 | 25.24432 | 55.37421 | 76 ft | 16 kts | 122° |
| 2026-05-05 21:54 | 25.24378 | 55.37520 | 77 ft | 14 kts | 121° |
| 2026-05-05 21:54 | 25.24330 | 55.37606 | 76 ft | 12 kts | 121° |
| 2026-05-05 21:55 | 25.24286 | 55.37684 | 77 ft | 12 kts | 121° |
| 2026-05-05 21:55 | 25.24266 | 55.37729 | 76 ft | 5 kts | 102° |
| 2026-05-05 21:55 | 25.24282 | 55.37776 | 77 ft | 8 kts | 40° |
| 2026-05-05 21:55 | 25.24339 | 55.37821 | 77 ft | 11 kts | 34° |
| 2026-05-05 21:56 | 25.24413 | 55.37876 | 76 ft | 14 kts | 34° |
| 2026-05-05 21:56 | 25.24499 | 55.37941 | 77 ft | 14 kts | 34° |
| 2026-05-05 21:56 | 25.24559 | 55.37986 | 77 ft | 5 kts | 34° |
| 2026-05-05 21:56 | 25.24592 | 55.37997 | 76 ft | 4 kts | 355° |
| 2026-05-05 21:57 | 25.24616 | 55.37984 | 76 ft | 3 kts | 322° |
| 2026-05-05 21:57 | 25.24637 | 55.37963 | 76 ft | 5 kts | 321° |
| 2026-05-05 21:57 | 25.24688 | 55.37959 | 76 ft | 9 kts | 33° |
| 2026-05-05 21:57 | 25.24741 | 55.37998 | 76 ft | 8 kts | 31° |
| 2026-05-05 21:58 | 25.24794 | 55.38009 | 76 ft | 8 kts | 347° |
| 2026-05-05 21:58 | 25.24843 | 55.37957 | 76 ft | 11 kts | 302° |
| 2026-05-05 21:58 | 25.24958 | 55.37753 | 76 ft | 63 kts | 301° |
| 2026-05-05 21:58 | 25.25324 | 55.37095 | 77 ft | 133 kts | 301° |
| 2026-05-05 21:59 | 25.25914 | 55.36025 | 126 ft | 185 kts | 300° |
| 2026-05-05 21:59 | 25.26595 | 55.34774 | 626 ft | 197 kts | 301° |
| 2026-05-05 21:59 | 25.27304 | 55.33476 | 1364 ft | 202 kts | 302° |
| 2026-05-05 21:59 | 25.28065 | 55.32112 | 1936 ft | 207 kts | 303° |
| 2026-05-05 22:00 | 25.28792 | 55.30750 | 2606 ft | 208 kts | 294° |
| 2026-05-05 22:00 | 25.29099 | 55.29207 | 3213 ft | 211 kts | 270° |
| 2026-05-05 22:00 | 25.28801 | 55.27636 | 3826 ft | 212 kts | 247° |
| 2026-05-05 22:00 | 25.28171 | 55.26164 | 4445 ft | 212 kts | 245° |
| 2026-05-05 22:01 | 25.27530 | 55.24692 | 5058 ft | 212 kts | 245° |
| 2026-05-05 22:01 | 25.26902 | 55.23220 | 5658 ft | 213 kts | 246° |
| 2026-05-05 22:01 | 25.26276 | 55.21743 | 6202 ft | 214 kts | 246° |
| 2026-05-05 22:01 | 25.25630 | 55.20216 | 6603 ft | 225 kts | 246° |
| 2026-05-05 22:02 | 25.24891 | 55.18598 | 6870 ft | 244 kts | 235° |
| 2026-05-05 22:02 | 25.23629 | 55.17295 | 7312 ft | 254 kts | 208° |
| 2026-05-05 22:02 | 25.21934 | 55.16717 | 7807 ft | 263 kts | 183° |
| 2026-05-05 22:02 | 25.20093 | 55.16855 | 8420 ft | 268 kts | 165° |
| 2026-05-05 22:03 | 25.18417 | 55.17772 | 9051 ft | 271 kts | 140° |
| 2026-05-05 22:03 | 25.17210 | 55.19438 | 9385 ft | 289 kts | 118° |
| 2026-05-05 22:03 | 25.16320 | 55.21444 | 9950 ft | 297 kts | 116° |
| 2026-05-05 22:03 | 25.15387 | 55.23521 | 10702 ft | 300 kts | 117° |
| 2026-05-05 22:04 | 25.14431 | 55.25559 | 11419 ft | 303 kts | 117° |
| 2026-05-05 22:04 | 25.13447 | 55.27616 | 12102 ft | 307 kts | 117° |
| 2026-05-05 22:04 | 25.12440 | 55.29713 | 12800 ft | 310 kts | 117° |
| 2026-05-05 22:05 | 25.10471 | 55.33807 | 14156 ft | 315 kts | 115° |
| 2026-05-05 22:05 | 25.09549 | 55.36013 | 14843 ft | 317 kts | 112° |
| 2026-05-05 22:05 | 25.08657 | 55.38251 | 15518 ft | 320 kts | 112° |
| 2026-05-05 22:05 | 25.07758 | 55.40468 | 16175 ft | 322 kts | 112° |
| 2026-05-05 22:06 | 25.06837 | 55.42738 | 16774 ft | 327 kts | 111° |
| 2026-05-05 22:06 | 25.05934 | 55.45097 | 17103 ft | 342 kts | 111° |
| 2026-05-05 22:06 | 25.04995 | 55.47566 | 17392 ft | 357 kts | 111° |
| 2026-05-05 22:06 | 25.04008 | 55.50140 | 17689 ft | 372 kts | 111° |
| 2026-05-05 22:07 | 25.02957 | 55.52867 | 17958 ft | 388 kts | 111° |
| 2026-05-05 22:07 | 25.01829 | 55.55619 | 18206 ft | 404 kts | 117° |
| 2026-05-05 22:07 | 25.00393 | 55.58362 | 18453 ft | 419 kts | 119° |
| 2026-05-05 22:07 | 24.98866 | 55.61185 | 18805 ft | 431 kts | 120° |
| 2026-05-05 22:08 | 24.97299 | 55.64077 | 19312 ft | 437 kts | 120° |
| 2026-05-05 22:08 | 24.95725 | 55.66983 | 19836 ft | 443 kts | 121° |
| 2026-05-05 22:08 | 24.94116 | 55.69891 | 20400 ft | 447 kts | 124° |
| 2026-05-05 22:08 | 24.92304 | 55.72697 | 20953 ft | 452 kts | 127° |
| 2026-05-05 22:09 | 24.90401 | 55.75566 | 21455 ft | 457 kts | 127° |
| 2026-05-05 22:09 | 24.88520 | 55.78394 | 21946 ft | 462 kts | 127° |
| 2026-05-05 22:09 | 24.86602 | 55.81281 | 22468 ft | 466 kts | 127° |
| 2026-05-05 22:09 | 24.84663 | 55.84198 | 22986 ft | 471 kts | 127° |
| 2026-05-05 22:10 | 24.82727 | 55.87091 | 23495 ft | 474 kts | 128° |
| 2026-05-05 22:10 | 24.80745 | 55.90013 | 24017 ft | 477 kts | 128° |
| 2026-05-05 22:10 | 24.78719 | 55.92945 | 24490 ft | 481 kts | 131° |
| 2026-05-05 22:10 | 24.76383 | 55.95633 | 24938 ft | 484 kts | 138° |
| 2026-05-05 22:11 | 24.73957 | 55.98146 | 25420 ft | 487 kts | 139° |
| 2026-05-05 22:11 | 24.71437 | 56.00734 | 25878 ft | 491 kts | 139° |
| 2026-05-05 22:11 | 24.68941 | 56.03297 | 26348 ft | 494 kts | 139° |
| 2026-05-05 22:11 | 24.66426 | 56.05882 | 26785 ft | 498 kts | 139° |
| 2026-05-05 22:12 | 24.63858 | 56.08523 | 27234 ft | 502 kts | 139° |
| 2026-05-05 22:12 | 24.61325 | 56.11128 | 27673 ft | 505 kts | 139° |
| 2026-05-05 22:12 | 24.58716 | 56.13810 | 28125 ft | 508 kts | 139° |
| 2026-05-05 22:12 | 24.56233 | 56.16581 | 28539 ft | 513 kts | 133° |
| 2026-05-05 22:13 | 24.53868 | 56.19565 | 28971 ft | 516 kts | 132° |
| 2026-05-05 22:13 | 24.51559 | 56.22514 | 29471 ft | 517 kts | 132° |
| 2026-05-05 22:13 | 24.49205 | 56.25518 | 30091 ft | 515 kts | 133° |
| 2026-05-05 22:13 | 24.46877 | 56.28487 | 30671 ft | 513 kts | 133° |
| 2026-05-05 22:14 | 24.44562 | 56.31437 | 31191 ft | 513 kts | 133° |
| 2026-05-05 22:14 | 24.42235 | 56.34398 | 31666 ft | 513 kts | 133° |
| 2026-05-05 22:14 | 24.39899 | 56.37368 | 32112 ft | 513 kts | 133° |
| 2026-05-05 22:14 | 24.37582 | 56.40312 | 32577 ft | 512 kts | 133° |
| 2026-05-05 22:15 | 24.35263 | 56.43257 | 33133 ft | 510 kts | 133° |
| 2026-05-05 22:15 | 24.32961 | 56.46177 | 33723 ft | 507 kts | 133° |
| 2026-05-05 22:15 | 24.30670 | 56.49082 | 34292 ft | 505 kts | 133° |
| 2026-05-05 22:15 | 24.28426 | 56.52009 | 34748 ft | 505 kts | 129° |
| 2026-05-05 22:16 | 24.26327 | 56.55164 | 34815 ft | 509 kts | 128° |
| 2026-05-05 22:16 | 24.22257 | 56.61420 | 34812 ft | 506 kts | 128° |
| 2026-05-05 22:17 | 24.18126 | 56.67709 | 34803 ft | 507 kts | 128° |
| 2026-05-05 22:17 | 24.13994 | 56.73958 | 34791 ft | 507 kts | 128° |
| 2026-05-05 22:18 | 24.09877 | 56.80161 | 34791 ft | 505 kts | 129° |
| 2026-05-05 22:18 | 24.05718 | 56.86407 | 34783 ft | 505 kts | 129° |
| 2026-05-05 22:19 | 24.01571 | 56.92619 | 34778 ft | 506 kts | 128° |
| 2026-05-05 22:19 | 23.97415 | 56.98830 | 34774 ft | 506 kts | 128° |
| 2026-05-05 22:20 | 23.93283 | 57.04997 | 34783 ft | 506 kts | 128° |
| 2026-05-05 22:20 | 23.89123 | 57.11197 | 34786 ft | 506 kts | 128° |
| 2026-05-05 22:21 | 23.84946 | 57.17416 | 34807 ft | 504 kts | 128° |
| 2026-05-05 22:21 | 23.80808 | 57.23569 | 34797 ft | 504 kts | 128° |
| 2026-05-05 22:22 | 23.76659 | 57.29732 | 34792 ft | 504 kts | 128° |
| 2026-05-05 22:22 | 23.72510 | 57.35888 | 34822 ft | 503 kts | 128° |
| 2026-05-05 22:23 | 23.68233 | 57.41892 | 34832 ft | 503 kts | 130° |
| 2026-05-05 22:23 | 23.63881 | 57.47841 | 34842 ft | 502 kts | 130° |
| 2026-05-05 22:24 | 23.59538 | 57.53786 | 34837 ft | 502 kts | 130° |
| 2026-05-05 22:24 | 23.55216 | 57.59729 | 34834 ft | 503 kts | 128° |
| 2026-05-05 22:25 | 23.51902 | 57.66436 | 34837 ft | 506 kts | 111° |
| 2026-05-05 22:25 | 23.50493 | 57.73934 | 34838 ft | 507 kts | 93° |
| 2026-05-05 22:26 | 23.51090 | 57.81534 | 34858 ft | 507 kts | 79° |
| 2026-05-05 22:26 | 23.52474 | 57.89038 | 34843 ft | 506 kts | 78° |
| 2026-05-05 22:27 | 23.53844 | 57.96539 | 34868 ft | 505 kts | 78° |
| 2026-05-05 22:27 | 23.55192 | 58.04019 | 34852 ft | 507 kts | 78° |
| 2026-05-05 22:28 | 23.56540 | 58.11565 | 34824 ft | 507 kts | 78° |
| 2026-05-05 22:28 | 23.57878 | 58.19107 | 34810 ft | 508 kts | 78° |
| 2026-05-05 22:29 | 23.59208 | 58.26637 | 34822 ft | 508 kts | 78° |
| 2026-05-05 22:29 | 23.60485 | 58.34190 | 34806 ft | 508 kts | 79° |
| 2026-05-05 22:30 | 23.61751 | 58.41749 | 34807 ft | 507 kts | 79° |
| 2026-05-05 22:30 | 23.63012 | 58.49302 | 34800 ft | 507 kts | 79° |
| 2026-05-05 22:31 | 23.64265 | 58.56820 | 34800 ft | 507 kts | 79° |
| 2026-05-05 22:31 | 23.65521 | 58.64374 | 34806 ft | 506 kts | 79° |
| 2026-05-05 22:32 | 23.66764 | 58.71876 | 34808 ft | 506 kts | 79° |
| 2026-05-05 22:32 | 23.68012 | 58.79426 | 34814 ft | 506 kts | 79° |
| 2026-05-05 22:33 | 23.69259 | 58.86979 | 34803 ft | 506 kts | 79° |
| 2026-05-05 22:33 | 23.70501 | 58.94517 | 34789 ft | 507 kts | 79° |
| 2026-05-05 22:34 | 23.71744 | 59.02079 | 34796 ft | 507 kts | 79° |
| 2026-05-05 22:34 | 23.72977 | 59.09610 | 34789 ft | 507 kts | 79° |
| 2026-05-05 22:35 | 23.74217 | 59.17205 | 34774 ft | 508 kts | 79° |
| 2026-05-05 22:35 | 23.75441 | 59.24725 | 34779 ft | 507 kts | 79° |
| 2026-05-05 22:36 | 23.76677 | 59.32341 | 34784 ft | 507 kts | 79° |
| 2026-05-05 22:36 | 23.77899 | 59.39901 | 34787 ft | 508 kts | 79° |
| 2026-05-05 22:37 | 23.79115 | 59.47443 | 34783 ft | 509 kts | 79° |
| 2026-05-05 22:37 | 23.80329 | 59.55014 | 34784 ft | 507 kts | 79° |
| 2026-05-05 22:38 | 23.81542 | 59.62618 | 34790 ft | 508 kts | 79° |
| 2026-05-05 22:38 | 23.82747 | 59.70194 | 34777 ft | 509 kts | 79° |
| 2026-05-05 22:39 | 23.83957 | 59.77826 | 34776 ft | 509 kts | 80° |
| 2026-05-05 22:39 | 23.84601 | 59.85459 | 34780 ft | 510 kts | 86° |
| 2026-05-05 22:40 | 23.85052 | 59.93166 | 34783 ft | 509 kts | 86° |
| 2026-05-05 22:40 | 23.85500 | 60.00860 | 34782 ft | 509 kts | 86° |
| 2026-05-05 22:41 | 23.85948 | 60.08594 | 34776 ft | 510 kts | 86° |
| 2026-05-05 22:41 | 23.86393 | 60.16319 | 34770 ft | 510 kts | 86° |
| 2026-05-05 22:42 | 23.86833 | 60.24033 | 34777 ft | 511 kts | 86° |
| 2026-05-05 22:42 | 23.87269 | 60.31725 | 34783 ft | 510 kts | 85° |
| 2026-05-05 22:43 | 23.87703 | 60.39453 | 34788 ft | 511 kts | 86° |
| 2026-05-05 22:43 | 23.88134 | 60.47190 | 34782 ft | 510 kts | 86° |
| 2026-05-05 22:44 | 23.88558 | 60.54890 | 34792 ft | 511 kts | 85° |
| 2026-05-05 22:44 | 23.88980 | 60.62609 | 34794 ft | 511 kts | 85° |
| 2026-05-05 22:45 | 23.89402 | 60.70387 | 34791 ft | 512 kts | 86° |
| 2026-05-05 22:45 | 23.89817 | 60.78128 | 34790 ft | 512 kts | 86° |
| 2026-05-05 22:46 | 23.90230 | 60.85896 | 34795 ft | 512 kts | 86° |
| 2026-05-05 22:46 | 23.90637 | 60.93631 | 34798 ft | 511 kts | 86° |
| 2026-05-05 22:47 | 23.91041 | 61.01381 | 34804 ft | 512 kts | 86° |
| 2026-05-05 22:47 | 23.91441 | 61.09120 | 34804 ft | 513 kts | 86° |
| 2026-05-05 22:48 | 23.91837 | 61.16867 | 34797 ft | 512 kts | 86° |
| 2026-05-05 22:48 | 23.92231 | 61.24649 | 34793 ft | 513 kts | 86° |
| 2026-05-05 22:49 | 23.92621 | 61.32427 | 34793 ft | 513 kts | 86° |
| 2026-05-05 22:49 | 23.93005 | 61.40160 | 34796 ft | 513 kts | 86° |
| 2026-05-05 22:50 | 23.93386 | 61.47926 | 34798 ft | 513 kts | 86° |
| 2026-05-05 22:50 | 23.93764 | 61.55696 | 34801 ft | 513 kts | 86° |
| 2026-05-05 22:51 | 23.94137 | 61.63464 | 34802 ft | 512 kts | 86° |
| 2026-05-05 22:51 | 23.94506 | 61.71199 | 34796 ft | 511 kts | 86° |
| 2026-05-05 22:52 | 23.94871 | 61.78960 | 34799 ft | 513 kts | 86° |
| 2026-05-05 22:52 | 23.95232 | 61.86708 | 34802 ft | 512 kts | 86° |
| 2026-05-05 22:53 | 23.95591 | 61.94491 | 34814 ft | 513 kts | 86° |
| 2026-05-05 22:53 | 23.95945 | 62.02257 | 34824 ft | 513 kts | 86° |
| 2026-05-05 22:54 | 23.96293 | 62.09988 | 34827 ft | 513 kts | 86° |
| 2026-05-05 22:54 | 23.96642 | 62.17800 | 34825 ft | 513 kts | 86° |
| 2026-05-05 22:55 | 23.96983 | 62.25557 | 34826 ft | 513 kts | 86° |
| 2026-05-05 22:55 | 23.97321 | 62.33317 | 34827 ft | 514 kts | 86° |
| 2026-05-05 22:56 | 23.97657 | 62.41108 | 34822 ft | 513 kts | 86° |
| 2026-05-05 22:56 | 23.97988 | 62.48885 | 34817 ft | 512 kts | 86° |
| 2026-05-05 22:57 | 23.98315 | 62.56657 | 34814 ft | 513 kts | 86° |
| 2026-05-05 22:57 | 23.98635 | 62.64381 | 34810 ft | 512 kts | 86° |
| 2026-05-05 22:58 | 23.98955 | 62.72180 | 34802 ft | 512 kts | 86° |
| 2026-05-05 22:58 | 23.99269 | 62.79916 | 34803 ft | 512 kts | 86° |
| 2026-05-05 22:59 | 23.99580 | 62.87685 | 34803 ft | 513 kts | 86° |
| 2026-05-05 22:59 | 23.99886 | 62.95447 | 34804 ft | 513 kts | 86° |
| 2026-05-05 23:00 | 24.00340 | 63.07121 | 34804 ft | 514 kts | 86° |
| 2026-05-05 23:00 | 24.00637 | 63.14892 | 34807 ft | 514 kts | 86° |
| 2026-05-05 23:01 | 24.00931 | 63.22677 | 34811 ft | 513 kts | 86° |
| 2026-05-05 23:01 | 24.01221 | 63.30458 | 34818 ft | 515 kts | 86° |
| 2026-05-05 23:02 | 24.01507 | 63.38250 | 34823 ft | 513 kts | 86° |
| 2026-05-05 23:02 | 24.01790 | 63.46061 | 34828 ft | 514 kts | 86° |
| 2026-05-05 23:03 | 24.02068 | 63.53841 | 34827 ft | 514 kts | 86° |
| 2026-05-05 23:03 | 24.02342 | 63.61612 | 34827 ft | 514 kts | 86° |
| 2026-05-05 23:04 | 24.02613 | 63.69432 | 34821 ft | 514 kts | 86° |
| 2026-05-05 23:04 | 24.02880 | 63.77235 | 34823 ft | 514 kts | 86° |
| 2026-05-05 23:05 | 24.03142 | 63.85020 | 34821 ft | 514 kts | 86° |
| 2026-05-05 23:05 | 24.03400 | 63.92810 | 34824 ft | 515 kts | 86° |
| 2026-05-05 23:06 | 24.03656 | 64.00633 | 34824 ft | 514 kts | 86° |
| 2026-05-05 23:06 | 24.03907 | 64.08449 | 34824 ft | 516 kts | 86° |
| 2026-05-05 23:07 | 24.04153 | 64.16209 | 34824 ft | 515 kts | 86° |
| 2026-05-05 23:07 | 24.04398 | 64.24057 | 34825 ft | 516 kts | 86° |
| 2026-05-05 23:08 | 24.04637 | 64.31885 | 34824 ft | 516 kts | 86° |
| 2026-05-05 23:08 | 24.04873 | 64.39696 | 34822 ft | 517 kts | 86° |
| 2026-05-05 23:09 | 24.05104 | 64.47509 | 34819 ft | 515 kts | 86° |
| 2026-05-05 23:09 | 24.05332 | 64.55335 | 34819 ft | 516 kts | 86° |
| 2026-05-05 23:10 | 24.05555 | 64.63163 | 34815 ft | 515 kts | 86° |
| 2026-05-05 23:10 | 24.05776 | 64.70988 | 34805 ft | 516 kts | 86° |
| 2026-05-05 23:11 | 24.05991 | 64.78791 | 34803 ft | 517 kts | 86° |
| 2026-05-05 23:11 | 24.06204 | 64.86662 | 34800 ft | 516 kts | 86° |
| 2026-05-05 23:12 | 24.06412 | 64.94508 | 34804 ft | 517 kts | 86° |
| 2026-05-05 23:12 | 24.06616 | 65.02334 | 34809 ft | 516 kts | 86° |
| 2026-05-05 23:13 | 24.06817 | 65.10210 | 34820 ft | 517 kts | 86° |
| 2026-05-05 23:13 | 24.07012 | 65.17997 | 34823 ft | 516 kts | 86° |
| 2026-05-05 23:14 | 24.07205 | 65.25872 | 34826 ft | 516 kts | 86° |
| 2026-05-05 23:14 | 24.07393 | 65.33723 | 34826 ft | 518 kts | 86° |
| 2026-05-05 23:15 | 24.07578 | 65.41551 | 34827 ft | 517 kts | 86° |
| 2026-05-05 23:15 | 24.07758 | 65.49427 | 34828 ft | 518 kts | 86° |
| 2026-05-05 23:16 | 24.07935 | 65.57259 | 34827 ft | 518 kts | 86° |
| 2026-05-05 23:16 | 24.08108 | 65.65139 | 34829 ft | 518 kts | 86° |
| 2026-05-05 23:17 | 24.08276 | 65.72989 | 34819 ft | 519 kts | 86° |
| 2026-05-05 23:17 | 24.08440 | 65.80840 | 34818 ft | 519 kts | 86° |
| 2026-05-05 23:18 | 24.08601 | 65.88730 | 34821 ft | 518 kts | 86° |
| 2026-05-05 23:18 | 24.08758 | 65.96574 | 34822 ft | 519 kts | 86° |
| 2026-05-05 23:19 | 24.08911 | 66.04484 | 34821 ft | 519 kts | 86° |
| 2026-05-05 23:19 | 24.09060 | 66.12335 | 34822 ft | 519 kts | 86° |
| 2026-05-05 23:20 | 24.09205 | 66.20229 | 34822 ft | 520 kts | 86° |
| 2026-05-05 23:20 | 24.09345 | 66.28100 | 34822 ft | 520 kts | 86° |
| 2026-05-05 23:21 | 24.09482 | 66.35977 | 34819 ft | 520 kts | 86° |
| 2026-05-05 23:21 | 24.09615 | 66.43888 | 34817 ft | 520 kts | 86° |
| 2026-05-05 23:22 | 24.09744 | 66.51794 | 34817 ft | 519 kts | 86° |
| 2026-05-05 23:22 | 24.09869 | 66.59662 | 34814 ft | 519 kts | 86° |
| 2026-05-05 23:23 | 24.09989 | 66.67546 | 34805 ft | 519 kts | 86° |
| 2026-05-05 23:23 | 24.10106 | 66.75423 | 34808 ft | 520 kts | 86° |
| 2026-05-05 23:24 | 24.10218 | 66.83333 | 34810 ft | 520 kts | 86° |
| 2026-05-05 23:24 | 24.10327 | 66.91192 | 34807 ft | 521 kts | 86° |
| 2026-05-05 23:25 | 24.10431 | 66.99101 | 34808 ft | 521 kts | 86° |
| 2026-05-05 23:25 | 24.10532 | 67.07029 | 34812 ft | 523 kts | 86° |
| 2026-05-05 23:26 | 24.10629 | 67.14964 | 34821 ft | 521 kts | 86° |
| 2026-05-05 23:26 | 24.10722 | 67.22861 | 34823 ft | 522 kts | 86° |
| 2026-05-05 23:27 | 24.10810 | 67.30782 | 34831 ft | 522 kts | 86° |
| 2026-05-05 23:27 | 24.10894 | 67.38679 | 34831 ft | 522 kts | 86° |
| 2026-05-05 23:28 | 24.10975 | 67.46616 | 34831 ft | 522 kts | 86° |
| 2026-05-05 23:28 | 24.11051 | 67.54525 | 34835 ft | 521 kts | 86° |
| 2026-05-05 23:29 | 24.11124 | 67.62429 | 34833 ft | 524 kts | 86° |
| 2026-05-05 23:29 | 24.11192 | 67.70406 | 34825 ft | 522 kts | 87° |
| 2026-05-05 23:30 | 24.11256 | 67.78337 | 34830 ft | 523 kts | 87° |
| 2026-05-05 23:30 | 24.11316 | 67.86289 | 34819 ft | 523 kts | 87° |
| 2026-05-05 23:31 | 24.11372 | 67.94219 | 34819 ft | 524 kts | 87° |
| 2026-05-05 23:31 | 24.11424 | 68.02181 | 34812 ft | 524 kts | 87° |
| 2026-05-05 23:32 | 24.11472 | 68.10094 | 34812 ft | 523 kts | 87° |
| 2026-05-05 23:32 | 24.11516 | 68.18106 | 34807 ft | 525 kts | 87° |
| 2026-05-05 23:33 | 24.11556 | 68.26035 | 34810 ft | 524 kts | 87° |
| 2026-05-05 23:33 | 24.11591 | 68.33968 | 34812 ft | 523 kts | 87° |
| 2026-05-05 23:34 | 24.11623 | 68.41930 | 34810 ft | 526 kts | 87° |
| 2026-05-05 23:34 | 24.11650 | 68.49900 | 34815 ft | 523 kts | 87° |
| 2026-05-05 23:35 | 24.11673 | 68.57880 | 34817 ft | 525 kts | 86° |
| 2026-05-05 23:35 | 24.11692 | 68.65837 | 34813 ft | 525 kts | 87° |
| 2026-05-05 23:36 | 24.11707 | 68.73782 | 34802 ft | 525 kts | 87° |
| 2026-05-05 23:36 | 24.11667 | 68.81784 | 34805 ft | 525 kts | 88° |
| 2026-05-05 23:37 | 24.11547 | 68.89730 | 34804 ft | 528 kts | 88° |
| 2026-05-05 23:37 | 24.11425 | 68.97733 | 34805 ft | 525 kts | 88° |
| 2026-05-05 23:38 | 24.11303 | 69.05737 | 34809 ft | 527 kts | 88° |
| 2026-05-05 23:38 | 24.11178 | 69.13711 | 34808 ft | 526 kts | 88° |
| 2026-05-05 23:39 | 24.11050 | 69.21677 | 34806 ft | 526 kts | 88° |
| 2026-05-05 23:39 | 24.10918 | 69.29658 | 34812 ft | 527 kts | 88° |
| 2026-05-05 23:40 | 24.10782 | 69.37656 | 34810 ft | 527 kts | 88° |
| 2026-05-05 23:40 | 24.10642 | 69.45656 | 34813 ft | 526 kts | 88° |
| 2026-05-05 23:41 | 24.10498 | 69.53660 | 34819 ft | 527 kts | 88° |
| 2026-05-05 23:41 | 24.10350 | 69.61636 | 34820 ft | 527 kts | 88° |
| 2026-05-05 23:42 | 24.10197 | 69.69643 | 34812 ft | 527 kts | 88° |
| 2026-05-05 23:42 | 24.10041 | 69.77644 | 34812 ft | 525 kts | 89° |
| 2026-05-05 23:43 | 24.09881 | 69.85606 | 34809 ft | 528 kts | 88° |
| 2026-05-05 23:43 | 24.09715 | 69.93626 | 34810 ft | 526 kts | 88° |
| 2026-05-05 23:44 | 24.09547 | 70.01585 | 34808 ft | 527 kts | 88° |
| 2026-05-05 23:44 | 24.09374 | 70.09579 | 34810 ft | 526 kts | 88° |
| 2026-05-05 23:45 | 24.09197 | 70.17591 | 34812 ft | 527 kts | 89° |
| 2026-05-05 23:45 | 24.09016 | 70.25533 | 34812 ft | 527 kts | 89° |
| 2026-05-05 23:46 | 24.08830 | 70.33564 | 34811 ft | 527 kts | 89° |
| 2026-05-05 23:46 | 24.08640 | 70.41582 | 34814 ft | 527 kts | 88° |
| 2026-05-05 23:47 | 24.08446 | 70.49565 | 34814 ft | 529 kts | 88° |
| 2026-05-05 23:47 | 24.08248 | 70.57577 | 34815 ft | 528 kts | 89° |
| 2026-05-05 23:48 | 24.08045 | 70.65596 | 34818 ft | 528 kts | 89° |
| 2026-05-05 23:48 | 24.07838 | 70.73608 | 34807 ft | 529 kts | 89° |
| 2026-05-05 23:49 | 24.07627 | 70.81596 | 34807 ft | 526 kts | 89° |
| 2026-05-05 23:49 | 24.07412 | 70.89632 | 34810 ft | 529 kts | 89° |
| 2026-05-05 23:50 | 24.07193 | 70.97610 | 34809 ft | 527 kts | 89° |
| 2026-05-05 23:50 | 24.06971 | 71.05608 | 34807 ft | 526 kts | 89° |
| 2026-05-05 23:51 | 24.06746 | 71.13610 | 34810 ft | 528 kts | 89° |
| 2026-05-05 23:51 | 24.06516 | 71.21618 | 34809 ft | 527 kts | 89° |
| 2026-05-05 23:52 | 24.06282 | 71.29637 | 34811 ft | 530 kts | 89° |
| 2026-05-05 23:52 | 24.06044 | 71.37641 | 34817 ft | 528 kts | 89° |
| 2026-05-05 23:53 | 24.05801 | 71.45653 | 34825 ft | 530 kts | 89° |
| 2026-05-05 23:53 | 24.05554 | 71.53696 | 34832 ft | 531 kts | 89° |
| 2026-05-05 23:54 | 24.05301 | 71.61748 | 34839 ft | 530 kts | 89° |
| 2026-05-05 23:54 | 24.05046 | 71.69759 | 34828 ft | 530 kts | 89° |
| 2026-05-05 23:55 | 24.04786 | 71.77798 | 34831 ft | 531 kts | 90° |
| 2026-05-05 23:55 | 24.04521 | 71.85870 | 34833 ft | 531 kts | 89° |
| 2026-05-05 23:56 | 24.04252 | 71.93922 | 34833 ft | 530 kts | 90° |
| 2026-05-05 23:56 | 24.03980 | 72.01929 | 34840 ft | 530 kts | 90° |
| 2026-05-05 23:57 | 24.03702 | 72.09977 | 34842 ft | 529 kts | 90° |
| 2026-05-05 23:57 | 24.03421 | 72.18037 | 34846 ft | 531 kts | 90° |
| 2026-05-05 23:58 | 24.03137 | 72.26037 | 34847 ft | 532 kts | 90° |
| 2026-05-05 23:58 | 24.02844 | 72.34150 | 34852 ft | 531 kts | 90° |
| 2026-05-05 23:59 | 24.02550 | 72.42204 | 34855 ft | 533 kts | 89° |
| 2026-05-05 23:59 | 24.02251 | 72.50274 | 34862 ft | 533 kts | 90° |
| 2026-05-06 00:00 | 24.01946 | 72.58394 | 34865 ft | 533 kts | 90° |
| 2026-05-06 00:00 | 24.01637 | 72.66494 | 34862 ft | 535 kts | 90° |
| 2026-05-06 00:01 | 24.01640 | 72.74566 | 34860 ft | 533 kts | 86° |
| 2026-05-06 00:01 | 24.01779 | 72.82642 | 34863 ft | 533 kts | 86° |
| 2026-05-06 00:02 | 24.01897 | 72.90709 | 34860 ft | 531 kts | 86° |
| 2026-05-06 00:02 | 24.02002 | 72.98831 | 34868 ft | 535 kts | 86° |
| 2026-05-06 00:03 | 24.02097 | 73.06950 | 34880 ft | 533 kts | 86° |
| 2026-05-06 00:03 | 24.02183 | 73.15007 | 34883 ft | 533 kts | 86° |
| 2026-05-06 00:04 | 24.02266 | 73.23140 | 34886 ft | 535 kts | 87° |
| 2026-05-06 00:04 | 24.02342 | 73.31259 | 34893 ft | 534 kts | 86° |
| 2026-05-06 00:05 | 24.02447 | 73.43388 | 34911 ft | 534 kts | 86° |
| 2026-05-06 00:06 | 24.02512 | 73.51547 | 34923 ft | 536 kts | 87° |
| 2026-05-06 00:06 | 24.02572 | 73.59678 | 34912 ft | 535 kts | 87° |
| 2026-05-06 00:07 | 24.02628 | 73.67770 | 34880 ft | 535 kts | 87° |
| 2026-05-06 00:07 | 24.02680 | 73.75876 | 34861 ft | 534 kts | 87° |
| 2026-05-06 00:08 | 24.02729 | 73.83997 | 34858 ft | 534 kts | 87° |
| 2026-05-06 00:08 | 24.02774 | 73.92157 | 34850 ft | 534 kts | 87° |
| 2026-05-06 00:09 | 24.02815 | 74.00270 | 34845 ft | 535 kts | 87° |
| 2026-05-06 00:09 | 24.02851 | 74.08406 | 34848 ft | 534 kts | 87° |
| 2026-05-06 00:10 | 24.02961 | 74.16514 | 34853 ft | 537 kts | 86° |
| 2026-05-06 00:10 | 24.03084 | 74.24665 | 34861 ft | 536 kts | 86° |
| 2026-05-06 00:11 | 24.03200 | 74.32831 | 34866 ft | 536 kts | 86° |
| 2026-05-06 00:11 | 24.03309 | 74.40927 | 34876 ft | 535 kts | 86° |
| 2026-05-06 00:12 | 24.03414 | 74.49077 | 34886 ft | 535 kts | 86° |
| 2026-05-06 00:12 | 24.03514 | 74.57155 | 34898 ft | 533 kts | 86° |
| 2026-05-06 00:13 | 24.03609 | 74.65260 | 34915 ft | 534 kts | 87° |
| 2026-05-06 00:13 | 24.03470 | 74.73358 | 34925 ft | 536 kts | 96° |
| 2026-05-06 00:14 | 24.01732 | 74.81357 | 34927 ft | 540 kts | 106° |
| 2026-05-06 00:14 | 23.99550 | 74.89174 | 34923 ft | 540 kts | 106° |
| 2026-05-06 00:15 | 23.97349 | 74.97012 | 34919 ft | 539 kts | 106° |
| 2026-05-06 00:15 | 23.95145 | 75.04836 | 34922 ft | 540 kts | 106° |
| 2026-05-06 00:16 | 23.92948 | 75.12612 | 34926 ft | 539 kts | 106° |
| 2026-05-06 00:16 | 23.90722 | 75.20474 | 34927 ft | 541 kts | 107° |
| 2026-05-06 00:17 | 23.88491 | 75.28335 | 34917 ft | 540 kts | 106° |
| 2026-05-06 00:17 | 23.86268 | 75.36152 | 34922 ft | 542 kts | 107° |
| 2026-05-06 00:18 | 23.84032 | 75.43996 | 34922 ft | 539 kts | 107° |
| 2026-05-06 00:18 | 23.81803 | 75.51800 | 34929 ft | 540 kts | 107° |
| 2026-05-06 00:19 | 23.79561 | 75.59628 | 34935 ft | 541 kts | 106° |
| 2026-05-06 00:19 | 23.77330 | 75.67405 | 34921 ft | 539 kts | 107° |
| 2026-05-06 00:20 | 23.75084 | 75.75218 | 34919 ft | 541 kts | 107° |
| 2026-05-06 00:20 | 23.72826 | 75.83055 | 34927 ft | 541 kts | 107° |
| 2026-05-06 00:21 | 23.70567 | 75.90880 | 34931 ft | 541 kts | 107° |
| 2026-05-06 00:21 | 23.68312 | 75.98675 | 34931 ft | 540 kts | 107° |
| 2026-05-06 00:22 | 23.66032 | 76.06512 | 34923 ft | 540 kts | 107° |
| 2026-05-06 00:22 | 23.63765 | 76.14270 | 34915 ft | 540 kts | 107° |
| 2026-05-06 00:23 | 23.61476 | 76.22090 | 34919 ft | 539 kts | 107° |
| 2026-05-06 00:23 | 23.59206 | 76.29834 | 34912 ft | 539 kts | 107° |
| 2026-05-06 00:24 | 23.56928 | 76.37583 | 34909 ft | 539 kts | 107° |
| 2026-05-06 00:24 | 23.54627 | 76.45400 | 34912 ft | 540 kts | 107° |